Angel Fire, NM (87710)

5:32 AM MDT on September 05, 2015 (GMT -0600)
NW face of Angel Fire Ski Mountain | | Change Station
CLOSE
Current Station
Personal Weather Station
Location: Angel Fire, NM
Elevation: 8907 ft
Nearby Weather Stations

Elev 8907 ft 36.39 °N, 105.26 °W | Updated 11 minutes ago

Overcast
Overcast
51.4 °F
Feels Like 51.4 °F
N
0.0
Wind Variable Wind from North
Gusts 0.0 mph

Today
High -- | Low -- °F
--% Chance of Precip.
Yesterday
High -- | Low -- °F
Precip. -- in
6:35 AM 7:23 PM
Waning Gibbous, 49% visible
Pressure 30.29 in
Visibility 10.0 miles
Clouds Overcast 9000 ft
Dew Point 49 °F
Humidity 91%
Rainfall 0.00 in
Snow Depth Not available.
UV 0.0 out of 12
Pollen 11.20 out of 12
Air Quality Not available.
Flu Activity Not available.
METAR KAXX 051115Z AUTO 14004KT 10SM OVC090 11/10 A3029 RMK AO2 T01130095
Pressure 30.29 in
Visibility 10.0 miles
Clouds Overcast 9000 ft
Dew Point 49 °F
Humidity 91%
Rainfall 0.00 in
Snow Depth Not available.
UV 0.0 out of 12
Pollen 11.20 out of 12
Air Quality Not available.
Flu Activity Not available.
METAR KAXX 051115Z AUTO 14004KT 10SM OVC090 11/10 A3029 RMK AO2 T01130095

10-Day Weather Forecast

×

Almanac

Astronomy

Sep. 05, 2015 Rise Set
Actual Time
Civil Twilight
Nautical Twilight
Astronomical Twilight
Moon
Length of Visible Light
Length of Day
Tomorrow will be .
, % of the Moon is Illuminated

Today's Extremes

State Highs State Lows

Community

WunderPhotos

Upload Photos

1,852,449 photos uploaded!

WunderBlogs® & News

Nearby

Air Quality

  Air Quality AQ Index Pollutant
Not available.

Snow Depth

Station Depth Elevation

Earthquake Activity

City Distance Mag. Time & Date
Minimum magnitude displayed is 2.5.

Coastal Water Temperatures

Place Temperature

Stations

Nearby Weather Stations

Station Location Temp. Windchill Dew Point Humidity Wind Precip. Elev Updated Type